createdAt,value
2018-05-09T00:01:23.224Z,68.55
2018-05-09T00:03:50.853Z,68.68
2018-05-09T00:06:18.514Z,68.74
2018-05-09T00:08:46.150Z,68.88
2018-05-09T00:11:13.763Z,68.75
2018-05-09T00:13:41.482Z,68.79
2018-05-09T00:16:09.112Z,69.02
2018-05-09T00:18:36.746Z,69.24
2018-05-09T00:21:04.353Z,69.33
2018-05-09T00:23:31.990Z,69.40
2018-05-09T00:25:59.686Z,69.36
2018-05-09T00:28:27.355Z,69.40
2018-05-09T00:30:55.023Z,69.45
2018-05-09T00:33:22.682Z,69.57
2018-05-09T00:35:50.322Z,69.55
2018-05-09T00:38:18.012Z,69.76
2018-05-09T00:40:45.670Z,69.73
2018-05-09T00:43:13.330Z,69.80
2018-05-09T00:45:40.987Z,70.21
2018-05-09T00:48:08.594Z,70.59
2018-05-09T00:50:36.315Z,70.96
2018-05-09T00:53:03.978Z,71.19
2018-05-09T00:55:31.615Z,71.50
2018-05-09T00:57:59.312Z,71.68
2018-05-09T01:00:27.076Z,71.97
2018-05-09T01:02:54.740Z,72.16
2018-05-09T01:05:22.407Z,72.26
2018-05-09T01:07:50.064Z,72.15
2018-05-09T01:10:18.019Z,72.14
2018-05-09T01:12:45.694Z,72.04
2018-05-09T01:15:13.326Z,72.03
2018-05-09T01:17:41.013Z,72.00
2018-05-09T01:20:08.659Z,71.96
2018-05-09T01:22:36.274Z,71.94
2018-05-09T01:25:03.912Z,71.88
2018-05-09T01:27:31.571Z,71.97
2018-05-09T01:29:59.227Z,72.14
2018-05-09T01:32:26.892Z,72.14
2018-05-09T01:34:54.531Z,72.09
2018-05-09T01:37:22.211Z,72.04
2018-05-09T01:39:49.866Z,72.17
2018-05-09T01:42:17.510Z,72.22
2018-05-09T01:44:45.203Z,72.34
2018-05-09T01:47:12.843Z,72.46
2018-05-09T01:49:40.528Z,72.55
2018-05-09T01:52:08.167Z,72.58
2018-05-09T01:54:35.794Z,72.44
2018-05-09T01:57:03.519Z,72.51
2018-05-09T01:59:31.139Z,72.59
2018-05-09T02:01:58.779Z,72.63
2018-05-09T02:04:26.399Z,72.66
2018-05-09T02:06:54.027Z,72.79
2018-05-09T02:09:21.641Z,73.08
2018-05-09T02:11:49.280Z,73.35
2018-05-09T02:14:16.904Z,73.53
2018-05-09T02:16:44.539Z,73.75
2018-05-09T02:19:12.191Z,73.82
2018-05-09T02:21:39.830Z,73.65
2018-05-09T02:24:07.526Z,73.60
2018-05-09T02:26:35.098Z,73.57
2018-05-09T02:29:02.710Z,73.76
2018-05-09T02:31:30.379Z,73.91
2018-05-09T02:33:57.999Z,73.86
2018-05-09T02:36:25.644Z,73.69
2018-05-09T02:38:53.353Z,73.64
2018-05-09T02:41:20.928Z,73.76
2018-05-09T02:43:48.776Z,73.95
2018-05-09T02:46:16.266Z,74.12
2018-05-09T02:48:43.874Z,74.23
2018-05-09T02:51:11.497Z,74.36
2018-05-09T02:53:39.242Z,74.40
2018-05-09T02:56:06.850Z,74.49
2018-05-09T02:58:34.565Z,74.57
2018-05-09T03:01:02.226Z,74.57
2018-05-09T03:03:29.890Z,74.76
2018-05-09T03:05:57.507Z,74.93
2018-05-09T03:08:25.216Z,74.93
2018-05-09T03:10:52.840Z,75.05
2018-05-09T03:13:20.483Z,74.98
2018-05-09T03:15:48.104Z,75.10
2018-05-09T03:18:15.862Z,75.16
2018-05-09T03:20:43.527Z,75.18
2018-05-09T03:23:11.167Z,75.25
2018-05-09T03:25:38.774Z,75.30
2018-05-09T03:28:06.412Z,75.31
2018-05-09T03:30:34.076Z,75.23
2018-05-09T03:33:01.721Z,75.31
2018-05-09T03:35:29.390Z,75.45
2018-05-09T03:37:57.031Z,75.63
2018-05-09T03:40:24.651Z,75.53
2018-05-09T03:42:52.291Z,75.49
2018-05-09T03:45:19.948Z,75.43
2018-05-09T03:47:47.608Z,75.50
2018-05-09T03:50:15.236Z,75.54
2018-05-09T03:52:42.930Z,75.54
2018-05-09T03:55:10.552Z,75.45
2018-05-09T03:57:38.259Z,75.31
2018-05-09T04:00:05.924Z,75.09
2018-05-09T04:02:45.558Z,74.90
2018-05-09T04:05:24.838Z,74.80
2018-05-09T04:08:04.343Z,74.91
2018-05-09T04:10:32.005Z,74.95
2018-05-09T04:12:59.626Z,74.75
2018-05-09T04:15:28.882Z,74.40
2018-05-09T04:17:56.527Z,73.90
2018-05-09T04:20:24.167Z,73.25
2018-05-09T04:22:51.784Z,72.54
2018-05-09T04:25:19.418Z,71.76
2018-05-09T04:27:47.066Z,71.05
2018-05-09T04:30:14.740Z,70.63
2018-05-09T04:32:42.404Z,70.32
2018-05-09T04:35:10.048Z,70.10
2018-05-09T04:37:37.661Z,69.93
2018-05-09T04:40:05.308Z,69.81
2018-05-09T04:42:32.936Z,69.80
2018-05-09T04:45:00.575Z,69.68
2018-05-09T04:47:28.308Z,69.75
2018-05-09T04:49:55.928Z,69.74
2018-05-09T04:52:23.547Z,69.52
2018-05-09T04:54:51.251Z,69.66
2018-05-09T04:57:18.867Z,69.71
2018-05-09T04:59:46.584Z,69.61
2018-05-09T05:02:14.155Z,69.56
2018-05-09T05:04:41.823Z,69.51
2018-05-09T05:07:09.569Z,69.46
2018-05-09T05:09:37.231Z,69.50
2018-05-09T05:12:04.902Z,69.54
2018-05-09T05:14:32.539Z,69.66
2018-05-09T05:17:00.212Z,69.76
2018-05-09T05:19:27.883Z,69.83
2018-05-09T05:21:55.523Z,69.97
2018-05-09T05:24:23.206Z,70.03
2018-05-09T05:26:50.871Z,70.15
2018-05-09T05:29:18.491Z,69.88
2018-05-09T05:31:46.197Z,69.47
2018-05-09T05:34:13.851Z,69.26
2018-05-09T05:36:41.491Z,69.14
2018-05-09T05:39:09.174Z,69.07
2018-05-09T05:41:36.816Z,68.90
2018-05-09T05:44:04.503Z,68.71
2018-05-09T05:46:32.894Z,68.71
2018-05-09T05:49:00.557Z,68.22
2018-05-09T05:51:28.190Z,68.04
2018-05-09T05:53:55.867Z,68.05
2018-05-09T05:56:23.503Z,68.03
2018-05-09T05:58:51.114Z,67.71
2018-05-09T06:01:18.864Z,67.78
2018-05-09T06:03:46.474Z,66.94
2018-05-09T06:06:14.190Z,66.14
2018-05-09T06:08:41.852Z,65.62
2018-05-09T06:11:09.487Z,65.43
2018-05-09T06:13:37.108Z,64.96
2018-05-09T06:16:04.751Z,64.52
2018-05-09T06:18:32.358Z,64.46
2018-05-09T06:20:59.995Z,64.39
2018-05-09T06:23:27.615Z,64.31
2018-05-09T06:25:55.284Z,64.06
2018-05-09T06:28:22.903Z,63.80
2018-05-09T06:30:50.653Z,63.38
2018-05-09T06:33:18.274Z,63.42
2018-05-09T06:35:45.883Z,63.19
2018-05-09T06:38:13.510Z,63.13
2018-05-09T06:40:41.124Z,62.59
2018-05-09T06:43:08.762Z,62.32
2018-05-09T06:45:36.483Z,61.75
2018-05-09T06:48:04.137Z,61.08
2018-05-09T06:50:31.752Z,60.48
2018-05-09T06:52:59.391Z,60.47
2018-05-09T06:55:27.031Z,59.90
2018-05-09T06:57:54.671Z,59.60
2018-05-09T07:00:22.280Z,59.06
2018-05-09T07:02:50.017Z,58.79
2018-05-09T07:05:17.627Z,58.08
2018-05-09T07:07:45.263Z,57.60
2018-05-09T07:10:12.880Z,56.20
2018-05-09T07:12:40.551Z,56.27
2018-05-09T07:15:08.179Z,55.35
2018-05-09T07:17:35.814Z,55.01
2018-05-09T07:20:03.426Z,54.62
2018-05-09T07:22:31.054Z,54.12
2018-05-09T07:24:58.776Z,53.11
2018-05-09T07:27:26.439Z,52.57
2018-05-09T07:29:54.103Z,52.62
2018-05-09T07:32:21.748Z,53.21
2018-05-09T07:34:49.423Z,53.78
2018-05-09T07:37:17.081Z,53.43
2018-05-09T07:39:44.742Z,52.10
2018-05-09T07:42:12.483Z,51.83
2018-05-09T07:44:40.077Z,51.21
2018-05-09T07:47:07.679Z,51.21
2018-05-09T07:49:35.320Z,50.27
2018-05-09T07:52:02.991Z,49.44
2018-05-09T07:54:30.731Z,48.92
2018-05-09T07:56:58.389Z,47.95
2018-05-09T07:59:26.028Z,46.40
2018-05-09T08:01:53.719Z,45.75
2018-05-09T08:04:21.352Z,45.44
2018-05-09T08:06:49.035Z,45.22
2018-05-09T08:09:17.416Z,45.01
2018-05-09T08:11:45.028Z,44.91
2018-05-09T08:14:12.672Z,44.04
2018-05-09T08:16:40.279Z,43.55
2018-05-09T08:19:08.262Z,43.28
2018-05-09T08:21:35.934Z,42.84
2018-05-09T08:24:03.563Z,42.24
2018-05-09T08:26:31.268Z,42.42
2018-05-09T08:28:58.903Z,42.48
2018-05-09T08:31:26.576Z,42.55
2018-05-09T08:33:54.474Z,41.64
2018-05-09T08:36:22.083Z,41.35
2018-05-09T08:38:49.724Z,40.86
2018-05-09T08:41:17.339Z,40.40
2018-05-09T08:43:45.094Z,39.98
2018-05-09T08:46:12.641Z,39.15
2018-05-09T08:48:40.277Z,37.88
2018-05-09T08:51:07.880Z,38.27
2018-05-09T08:53:35.702Z,38.14
2018-05-09T08:56:03.307Z,38.71
2018-05-09T08:58:30.980Z,37.91
2018-05-09T09:00:58.610Z,37.60
2018-05-09T09:03:26.223Z,37.45
2018-05-09T09:05:54.057Z,37.67
2018-05-09T09:08:21.822Z,37.14
2018-05-09T09:10:49.529Z,37.29
2018-05-09T09:13:17.099Z,36.31
2018-05-09T09:15:44.764Z,35.41
2018-05-09T09:18:12.375Z,35.93
2018-05-09T09:20:40.013Z,35.75
2018-05-09T09:23:07.617Z,35.44
2018-05-09T09:25:35.243Z,35.90
2018-05-09T09:28:02.983Z,34.96
2018-05-09T09:30:30.682Z,35.20
2018-05-09T09:32:58.294Z,35.51
2018-05-09T09:35:26.015Z,35.07
2018-05-09T09:37:53.635Z,34.24
2018-05-09T09:40:21.271Z,34.35
2018-05-09T09:42:48.900Z,34.96
2018-05-09T09:45:16.531Z,34.33
2018-05-09T09:47:44.139Z,34.38
2018-05-09T09:50:11.774Z,34.29
2018-05-09T09:52:39.440Z,34.23
2018-05-09T09:55:07.075Z,33.71
2018-05-09T09:57:34.700Z,33.89
2018-05-09T10:00:02.343Z,32.59
2018-05-09T10:02:29.955Z,32.44
2018-05-09T10:04:57.656Z,32.71
2018-05-09T10:07:25.323Z,32.45
2018-05-09T10:09:52.935Z,31.95
2018-05-09T10:12:20.566Z,32.09
2018-05-09T10:14:48.183Z,31.57
2018-05-09T10:17:15.813Z,31.81
2018-05-09T10:19:43.427Z,31.76
2018-05-09T10:22:11.067Z,31.68
2018-05-09T10:24:38.678Z,31.62
2018-05-09T10:27:06.418Z,31.29
2018-05-09T10:29:34.075Z,31.01
2018-05-09T10:32:01.713Z,30.69
2018-05-09T10:34:29.336Z,30.73
2018-05-09T10:36:57.057Z,30.48
2018-05-09T10:39:24.728Z,30.40
2018-05-09T10:41:52.386Z,30.18
2018-05-09T10:44:19.994Z,30.02
2018-05-09T10:46:47.627Z,29.75
2018-05-09T10:49:15.234Z,30.18
2018-05-09T10:51:42.930Z,30.29
2018-05-09T10:54:10.545Z,30.29
2018-05-09T10:56:38.187Z,30.46
2018-05-09T10:59:05.818Z,30.50
2018-05-09T11:01:33.479Z,30.45
2018-05-09T11:04:01.198Z,29.82
2018-05-09T11:06:28.904Z,30.48
2018-05-09T11:08:56.570Z,30.19
2018-05-09T11:11:24.203Z,30.37
2018-05-09T11:13:51.899Z,30.11
2018-05-09T11:16:19.548Z,30.03
2018-05-09T11:18:47.220Z,30.01
2018-05-09T11:21:14.983Z,30.14
2018-05-09T11:23:42.655Z,29.83
2018-05-09T11:26:10.273Z,29.89
2018-05-09T11:28:37.906Z,30.37
2018-05-09T11:31:05.539Z,30.40
2018-05-09T11:33:33.190Z,30.20
2018-05-09T11:36:00.863Z,30.44
2018-05-09T11:38:28.531Z,30.68
2018-05-09T11:40:56.140Z,30.44
2018-05-09T11:43:23.775Z,29.72
2018-05-09T11:45:51.416Z,29.60
2018-05-09T11:48:19.055Z,29.84
2018-05-09T11:50:46.726Z,30.05
2018-05-09T11:53:14.490Z,30.55
2018-05-09T11:55:42.155Z,30.23
2018-05-09T11:58:09.802Z,29.92
2018-05-09T12:00:37.487Z,29.96
2018-05-09T12:03:05.153Z,29.88
2018-05-09T12:05:32.763Z,29.75
2018-05-09T12:08:00.391Z,29.79
2018-05-09T12:10:28.023Z,29.24
2018-05-09T12:12:55.695Z,29.28
2018-05-09T12:15:23.359Z,28.97
2018-05-09T12:17:51.018Z,28.80
2018-05-09T12:20:18.686Z,28.78
2018-05-09T12:22:46.314Z,29.40
2018-05-09T12:25:13.918Z,29.51
2018-05-09T12:27:41.552Z,29.68
2018-05-09T12:30:09.236Z,29.83
2018-05-09T12:32:36.991Z,29.17
2018-05-09T12:35:04.653Z,29.06
2018-05-09T12:37:33.188Z,29.00
2018-05-09T12:40:00.810Z,29.01
2018-05-09T12:42:28.531Z,29.23
2018-05-09T12:44:56.325Z,29.49
2018-05-09T12:47:23.985Z,29.14
2018-05-09T12:49:51.623Z,28.81
2018-05-09T12:52:19.310Z,28.87
2018-05-09T12:54:46.935Z,29.05
2018-05-09T12:57:14.548Z,28.89
2018-05-09T12:59:42.201Z,28.91
2018-05-09T13:02:09.815Z,29.09
2018-05-09T13:04:37.522Z,28.72
2018-05-09T13:07:05.135Z,28.63
2018-05-09T13:09:32.855Z,28.79
2018-05-09T13:12:00.496Z,28.65
2018-05-09T13:14:28.122Z,28.54
2018-05-09T13:16:55.732Z,28.68
2018-05-09T13:19:23.395Z,28.73
2018-05-09T13:21:51.062Z,28.85
2018-05-09T13:24:18.700Z,28.87
2018-05-09T13:26:46.308Z,28.64
2018-05-09T13:29:13.946Z,28.78
2018-05-09T13:31:41.653Z,28.95
2018-05-09T13:34:09.232Z,28.65
2018-05-09T13:36:36.838Z,28.83
2018-05-09T13:39:04.468Z,28.97
2018-05-09T13:41:32.147Z,29.08
2018-05-09T13:43:59.747Z,29.21
2018-05-09T13:46:27.444Z,29.08
2018-05-09T13:48:55.015Z,28.63
2018-05-09T13:51:22.801Z,28.49
2018-05-09T13:53:50.519Z,28.33
2018-05-09T13:56:18.067Z,28.34
2018-05-09T13:58:45.679Z,28.29
2018-05-09T14:01:13.354Z,28.09
2018-05-09T14:03:40.976Z,28.07
2018-05-09T14:06:08.616Z,28.02
2018-05-09T14:08:36.260Z,28.29
2018-05-09T14:11:03.896Z,28.52
2018-05-09T14:13:31.513Z,28.14
2018-05-09T14:15:59.147Z,28.75
2018-05-09T14:18:26.782Z,29.83
2018-05-09T14:20:54.421Z,30.15
2018-05-09T14:23:22.039Z,30.67
2018-05-09T14:25:49.870Z,30.65
2018-05-09T14:28:17.478Z,30.98
2018-05-09T14:30:45.195Z,30.83
2018-05-09T14:33:12.863Z,30.73
2018-05-09T14:35:40.495Z,30.99
2018-05-09T14:38:08.190Z,30.80
2018-05-09T14:40:35.878Z,30.96
2018-05-09T14:43:03.467Z,31.20
2018-05-09T14:45:31.113Z,31.49
2018-05-09T14:47:58.845Z,31.64
2018-05-09T14:50:26.479Z,32.20
2018-05-09T14:52:54.097Z,32.48
2018-05-09T14:55:21.828Z,32.38
2018-05-09T14:57:49.448Z,32.07
2018-05-09T15:00:17.091Z,31.93
2018-05-09T15:02:44.820Z,32.33
2018-05-09T15:05:12.426Z,32.27
2018-05-09T15:07:40.059Z,32.58
2018-05-09T15:10:07.672Z,32.82
2018-05-09T15:12:35.302Z,33.31
2018-05-09T15:15:02.914Z,33.24
2018-05-09T15:17:30.546Z,33.52
2018-05-09T15:19:58.238Z,33.82
2018-05-09T15:22:25.870Z,33.37
2018-05-09T15:24:53.475Z,33.56
2018-05-09T15:27:21.113Z,33.71
2018-05-09T15:29:48.728Z,33.45
2018-05-09T15:32:16.358Z,33.68
2018-05-09T15:34:43.974Z,33.75
2018-05-09T15:37:11.681Z,33.62
2018-05-09T15:39:39.344Z,33.86
2018-05-09T15:42:06.982Z,33.83
2018-05-09T15:44:34.603Z,34.00
2018-05-09T15:47:03.020Z,34.25
2018-05-09T15:49:30.639Z,34.60
2018-05-09T15:51:58.371Z,34.90
2018-05-09T15:54:25.987Z,34.90
2018-05-09T15:56:53.624Z,35.14
2018-05-09T15:59:21.238Z,35.08
2018-05-09T16:01:48.920Z,35.17
2018-05-09T16:04:16.564Z,35.35
2018-05-09T16:06:44.233Z,35.48
2018-05-09T16:09:11.855Z,35.78
2018-05-09T16:11:39.597Z,35.74
2018-05-09T16:14:07.259Z,35.74
2018-05-09T16:16:34.851Z,35.70
2018-05-09T16:19:02.488Z,35.77
2018-05-09T16:21:30.099Z,35.91
2018-05-09T16:23:57.783Z,35.96
2018-05-09T16:26:25.444Z,35.64
2018-05-09T16:28:53.107Z,35.80
2018-05-09T16:31:20.714Z,35.73
2018-05-09T16:33:48.428Z,35.58
2018-05-09T16:36:16.103Z,35.43
2018-05-09T16:38:43.703Z,35.10
2018-05-09T16:41:11.322Z,34.57
2018-05-09T16:43:38.970Z,34.21
2018-05-09T16:46:06.582Z,34.04
2018-05-09T16:48:34.221Z,33.69
2018-05-09T16:51:01.848Z,33.45
2018-05-09T16:53:29.519Z,33.27
2018-05-09T16:55:57.183Z,33.23
2018-05-09T16:58:24.824Z,33.09
2018-05-09T17:00:52.439Z,33.08
2018-05-09T17:03:20.075Z,33.24
2018-05-09T17:05:47.691Z,33.21
2018-05-09T17:08:15.391Z,33.40
2018-05-09T17:10:43.051Z,33.39
2018-05-09T17:13:10.744Z,33.54
2018-05-09T17:15:38.347Z,33.74
2018-05-09T17:18:05.983Z,33.56
2018-05-09T17:20:33.596Z,33.54
2018-05-09T17:23:01.269Z,33.85
2018-05-09T17:25:28.919Z,34.27
2018-05-09T17:27:56.529Z,34.81
2018-05-09T17:30:24.198Z,35.31
2018-05-09T17:32:51.811Z,35.89
2018-05-09T17:35:19.491Z,36.39
2018-05-09T17:37:47.082Z,36.69
2018-05-09T17:40:14.718Z,37.01
2018-05-09T17:42:42.366Z,37.47
2018-05-09T17:45:09.993Z,37.75
2018-05-09T17:47:37.700Z,38.04
2018-05-09T17:50:05.340Z,38.41
2018-05-09T17:52:32.959Z,38.61
2018-05-09T17:55:00.605Z,38.97
2018-05-09T17:57:28.222Z,39.25
2018-05-09T17:59:55.903Z,39.48
2018-05-09T18:02:23.549Z,39.62
2018-05-09T18:04:51.178Z,39.86
2018-05-09T18:07:18.875Z,40.17
2018-05-09T18:09:46.503Z,40.44
2018-05-09T18:12:14.116Z,40.59
2018-05-09T18:14:41.956Z,40.82
2018-05-09T18:17:09.532Z,40.98
2018-05-09T18:19:37.196Z,41.12
2018-05-09T18:22:04.817Z,41.42
2018-05-09T18:24:32.468Z,41.61
2018-05-09T18:27:00.080Z,41.94
2018-05-09T18:29:27.736Z,42.07
2018-05-09T18:31:55.343Z,42.27
2018-05-09T18:34:23.068Z,42.47
2018-05-09T18:36:50.718Z,42.62
2018-05-09T18:39:18.492Z,42.80
2018-05-09T18:41:46.112Z,43.08
2018-05-09T18:44:13.791Z,43.25
2018-05-09T18:46:41.482Z,43.46
2018-05-09T18:49:09.096Z,43.57
2018-05-09T18:51:36.799Z,43.74
2018-05-09T18:54:04.496Z,43.92
2018-05-09T18:56:32.120Z,44.15
2018-05-09T18:58:59.793Z,44.34
2018-05-09T19:01:27.440Z,44.57
2018-05-09T19:03:55.042Z,44.79
2018-05-09T19:06:22.682Z,45.10
2018-05-09T19:08:50.299Z,45.28
2018-05-09T19:11:17.922Z,45.50
2018-05-09T19:13:45.539Z,45.73
2018-05-09T19:16:14.021Z,46.04
2018-05-09T19:18:41.594Z,46.25
2018-05-09T19:21:09.226Z,46.45
2018-05-09T19:23:36.835Z,46.76
2018-05-09T19:26:04.472Z,46.87
2018-05-09T19:28:32.120Z,47.14
2018-05-09T19:30:59.744Z,47.32
2018-05-09T19:33:27.367Z,47.58
2018-05-09T19:35:55.024Z,47.82
2018-05-09T19:38:22.686Z,47.93
2018-05-09T19:40:50.314Z,48.12
2018-05-09T19:43:18.019Z,48.23
2018-05-09T19:45:45.646Z,48.40
2018-05-09T19:48:13.260Z,48.55
2018-05-09T19:50:40.997Z,48.75
2018-05-09T19:53:08.667Z,48.94
2018-05-09T19:55:36.271Z,49.13
2018-05-09T19:58:03.996Z,49.34
2018-05-09T20:00:31.622Z,49.54
2018-05-09T20:02:59.310Z,49.75
2018-05-09T20:05:26.911Z,49.82
2018-05-09T20:07:54.627Z,49.91
2018-05-09T20:10:22.234Z,50.30
2018-05-09T20:12:49.862Z,50.50
2018-05-09T20:15:18.342Z,50.47
2018-05-09T20:17:45.965Z,50.69
2018-05-09T20:20:13.574Z,50.88
2018-05-09T20:22:41.230Z,51.01
2018-05-09T20:25:08.845Z,51.21
2018-05-09T20:27:36.484Z,51.43
2018-05-09T20:30:04.094Z,51.60
2018-05-09T20:32:40.120Z,51.79
2018-05-09T20:35:07.725Z,51.88
2018-05-09T20:37:35.390Z,52.07
2018-05-09T20:40:02.998Z,52.26
2018-05-09T20:42:30.635Z,52.46
2018-05-09T20:44:58.247Z,52.56
2018-05-09T20:47:25.891Z,52.82
2018-05-09T20:49:53.503Z,52.97
2018-05-09T20:52:21.135Z,53.32
2018-05-09T20:54:48.747Z,53.47
2018-05-09T20:57:16.370Z,53.70
2018-05-09T20:59:43.978Z,54.14
2018-05-09T21:02:11.582Z,54.07
2018-05-09T21:04:39.266Z,54.40
2018-05-09T21:07:06.875Z,54.75
2018-05-09T21:09:34.519Z,55.02
2018-05-09T21:12:08.918Z,55.32
2018-05-09T21:14:36.565Z,55.65
2018-05-09T21:17:04.183Z,55.96
2018-05-09T21:19:31.824Z,56.15
2018-05-09T21:21:59.444Z,56.32
2018-05-09T21:24:27.128Z,56.33
2018-05-09T21:26:54.743Z,56.18
2018-05-09T21:29:22.378Z,56.16
2018-05-09T21:31:49.992Z,56.03
2018-05-09T21:34:17.676Z,56.11
2018-05-09T21:36:45.278Z,56.21
2018-05-09T21:39:12.919Z,56.30
2018-05-09T21:41:40.530Z,56.61
2018-05-09T21:44:08.167Z,56.81
2018-05-09T21:46:35.783Z,57.01
2018-05-09T21:49:03.537Z,57.21
2018-05-09T21:51:31.780Z,57.52
2018-05-09T21:53:59.579Z,57.98
2018-05-09T21:56:27.192Z,58.26
2018-05-09T21:58:54.821Z,58.56
2018-05-09T22:01:23.160Z,59.17
2018-05-09T22:03:50.803Z,59.21
2018-05-09T22:06:18.410Z,59.38
2018-05-09T22:08:46.046Z,59.42
2018-05-09T22:11:13.727Z,59.51
2018-05-09T22:13:41.407Z,59.49
2018-05-09T22:16:09.023Z,59.43
2018-05-09T22:18:36.736Z,59.31
2018-05-09T22:21:04.376Z,59.42
2018-05-09T22:23:32.048Z,59.63
2018-05-09T22:25:59.714Z,59.95
2018-05-09T22:28:27.366Z,60.20
2018-05-09T22:30:55.004Z,60.41
2018-05-09T22:33:22.690Z,60.64
2018-05-09T22:35:50.362Z,60.93
2018-05-09T22:38:18.023Z,61.07
2018-05-09T22:40:45.663Z,61.32
2018-05-09T22:43:13.351Z,61.55
2018-05-09T22:45:41.538Z,61.53
2018-05-09T22:48:09.156Z,61.47
2018-05-09T22:50:36.806Z,61.29
2018-05-09T22:53:04.503Z,61.39
2018-05-09T22:55:32.172Z,61.50
2018-05-09T22:57:59.787Z,61.65
2018-05-09T23:00:27.489Z,61.74
2018-05-09T23:02:55.154Z,61.93
2018-05-09T23:05:22.824Z,62.21
2018-05-09T23:07:50.483Z,62.30
2018-05-09T23:10:18.205Z,62.39
2018-05-09T23:12:45.809Z,62.45
2018-05-09T23:15:13.471Z,62.47
2018-05-09T23:17:41.227Z,62.55
2018-05-09T23:20:08.901Z,62.56
2018-05-09T23:22:37.022Z,62.78
2018-05-09T23:25:04.651Z,62.93
2018-05-09T23:27:32.263Z,63.15
2018-05-09T23:29:59.894Z,63.36
2018-05-09T23:32:27.511Z,63.55
2018-05-09T23:34:55.115Z,63.63
2018-05-09T23:37:22.896Z,63.72
2018-05-09T23:39:50.502Z,63.90
2018-05-09T23:42:18.136Z,63.95
2018-05-09T23:44:45.751Z,63.85
2018-05-09T23:47:13.387Z,63.89
2018-05-09T23:49:41.042Z,64.13
2018-05-09T23:52:08.726Z,64.17
2018-05-09T23:54:36.344Z,64.31
2018-05-09T23:57:04.047Z,64.44
2018-05-09T23:59:31.659Z,64.63
